sensor_id;sensor_type;location;lat;lon;timestamp;P1;durP1;ratioP1;P2;durP2;ratioP2
63975;SDS011;50167;47.958;21.780;2022-08-25T00:01:26;10.55;;;5.75;;
63975;SDS011;50167;47.958;21.780;2022-08-25T00:03:58;12.00;;;5.47;;
63975;SDS011;50167;47.958;21.780;2022-08-25T00:06:28;14.45;;;6.05;;
63975;SDS011;50167;47.958;21.780;2022-08-25T00:08:55;9.18;;;5.72;;
63975;SDS011;50167;47.958;21.780;2022-08-25T00:11:26;9.73;;;5.25;;
63975;SDS011;50167;47.958;21.780;2022-08-25T00:13:57;11.93;;;5.92;;
63975;SDS011;50167;47.958;21.780;2022-08-25T00:16:27;10.98;;;5.45;;
63975;SDS011;50167;47.958;21.780;2022-08-25T00:18:57;10.55;;;6.45;;
63975;SDS011;50167;47.958;21.780;2022-08-25T00:21:28;26.12;;;8.20;;
63975;SDS011;50167;47.958;21.780;2022-08-25T00:23:57;10.13;;;5.75;;
63975;SDS011;50167;47.958;21.780;2022-08-25T00:26:24;9.45;;;5.62;;
63975;SDS011;50167;47.958;21.780;2022-08-25T00:28:53;11.63;;;6.70;;
63975;SDS011;50167;47.958;21.780;2022-08-25T00:31:20;10.90;;;6.08;;
63975;SDS011;50167;47.958;21.780;2022-08-25T00:33:51;9.20;;;5.70;;
63975;SDS011;50167;47.958;21.780;2022-08-25T00:36:19;12.13;;;4.78;;
63975;SDS011;50167;47.958;21.780;2022-08-25T00:38:47;7.90;;;5.10;;
63975;SDS011;50167;47.958;21.780;2022-08-25T00:41:20;8.20;;;5.70;;
63975;SDS011;50167;47.958;21.780;2022-08-25T00:43:50;11.43;;;5.72;;
63975;SDS011;50167;47.958;21.780;2022-08-25T00:46:34;12.43;;;5.00;;
63975;SDS011;50167;47.958;21.780;2022-08-25T00:49:10;11.40;;;5.65;;
63975;SDS011;50167;47.958;21.780;2022-08-25T00:51:54;13.45;;;5.85;;
63975;SDS011;50167;47.958;21.780;2022-08-25T00:54:36;11.70;;;6.22;;
63975;SDS011;50167;47.958;21.780;2022-08-25T00:57:09;10.72;;;5.40;;
63975;SDS011;50167;47.958;21.780;2022-08-25T00:59:39;11.75;;;5.50;;
63975;SDS011;50167;47.958;21.780;2022-08-25T01:02:09;14.65;;;5.60;;
63975;SDS011;50167;47.958;21.780;2022-08-25T01:04:37;10.95;;;4.87;;
63975;SDS011;50167;47.958;21.780;2022-08-25T01:07:05;12.65;;;5.72;;
63975;SDS011;50167;47.958;21.780;2022-08-25T01:09:33;12.80;;;4.65;;
63975;SDS011;50167;47.958;21.780;2022-08-25T01:12:00;10.08;;;5.00;;
63975;SDS011;50167;47.958;21.780;2022-08-25T01:14:28;9.90;;;5.25;;
63975;SDS011;50167;47.958;21.780;2022-08-25T01:16:57;12.70;;;5.30;;
63975;SDS011;50167;47.958;21.780;2022-08-25T01:19:26;19.80;;;6.42;;
63975;SDS011;50167;47.958;21.780;2022-08-25T01:21:54;19.27;;;7.05;;
63975;SDS011;50167;47.958;21.780;2022-08-25T01:24:28;12.58;;;6.00;;
63975;SDS011;50167;47.958;21.780;2022-08-25T01:27:03;21.07;;;6.50;;
63975;SDS011;50167;47.958;21.780;2022-08-25T01:29:32;16.93;;;5.75;;
63975;SDS011;50167;47.958;21.780;2022-08-25T01:32:04;12.75;;;6.25;;
63975;SDS011;50167;47.958;21.780;2022-08-25T01:34:36;22.58;;;6.20;;
63975;SDS011;50167;47.958;21.780;2022-08-25T01:37:06;12.33;;;6.20;;
63975;SDS011;50167;47.958;21.780;2022-08-25T01:39:35;15.95;;;5.00;;
63975;SDS011;50167;47.958;21.780;2022-08-25T01:44:55;21.15;;;5.45;;
63975;SDS011;50167;47.958;21.780;2022-08-25T01:47:22;20.45;;;6.60;;
63975;SDS011;50167;47.958;21.780;2022-08-25T01:49:49;13.62;;;5.85;;
63975;SDS011;50167;47.958;21.780;2022-08-25T01:52:24;14.53;;;6.15;;
63975;SDS011;50167;47.958;21.780;2022-08-25T01:55:01;15.83;;;6.53;;
63975;SDS011;50167;47.958;21.780;2022-08-25T01:57:29;21.40;;;6.53;;
63975;SDS011;50167;47.958;21.780;2022-08-25T01:59:57;17.52;;;6.33;;
63975;SDS011;50167;47.958;21.780;2022-08-25T02:02:26;14.65;;;5.30;;
63975;SDS011;50167;47.958;21.780;2022-08-25T02:04:54;19.85;;;7.83;;
63975;SDS011;50167;47.958;21.780;2022-08-25T02:07:21;20.17;;;6.42;;
63975;SDS011;50167;47.958;21.780;2022-08-25T02:09:48;20.90;;;6.95;;
63975;SDS011;50167;47.958;21.780;2022-08-25T02:12:15;23.73;;;7.28;;
63975;SDS011;50167;47.958;21.780;2022-08-25T02:14:42;30.88;;;7.58;;
63975;SDS011;50167;47.958;21.780;2022-08-25T02:17:09;23.02;;;7.37;;
63975;SDS011;50167;47.958;21.780;2022-08-25T02:19:36;26.15;;;6.75;;
63975;SDS011;50167;47.958;21.780;2022-08-25T02:22:03;41.40;;;8.35;;
63975;SDS011;50167;47.958;21.780;2022-08-25T02:24:31;26.80;;;7.33;;
63975;SDS011;50167;47.958;21.780;2022-08-25T02:26:58;26.30;;;7.03;;
63975;SDS011;50167;47.958;21.780;2022-08-25T02:29:26;23.07;;;6.22;;
63975;SDS011;50167;47.958;21.780;2022-08-25T02:31:53;18.62;;;7.22;;
63975;SDS011;50167;47.958;21.780;2022-08-25T02:34:20;31.52;;;7.35;;
63975;SDS011;50167;47.958;21.780;2022-08-25T02:36:48;24.65;;;7.67;;
63975;SDS011;50167;47.958;21.780;2022-08-25T02:39:15;15.90;;;6.85;;
63975;SDS011;50167;47.958;21.780;2022-08-25T02:41:42;26.48;;;8.60;;
63975;SDS011;50167;47.958;21.780;2022-08-25T02:44:09;17.90;;;5.62;;
63975;SDS011;50167;47.958;21.780;2022-08-25T02:46:37;16.77;;;6.83;;
63975;SDS011;50167;47.958;21.780;2022-08-25T02:49:04;26.00;;;7.47;;
63975;SDS011;50167;47.958;21.780;2022-08-25T02:51:32;27.98;;;7.42;;
63975;SDS011;50167;47.958;21.780;2022-08-25T02:54:01;26.80;;;6.95;;
63975;SDS011;50167;47.958;21.780;2022-08-25T02:56:30;20.35;;;7.20;;
63975;SDS011;50167;47.958;21.780;2022-08-25T02:58:59;22.95;;;7.20;;
63975;SDS011;50167;47.958;21.780;2022-08-25T03:01:28;19.45;;;7.47;;
63975;SDS011;50167;47.958;21.780;2022-08-25T03:03:57;40.80;;;7.22;;
63975;SDS011;50167;47.958;21.780;2022-08-25T03:06:26;20.55;;;5.92;;
63975;SDS011;50167;47.958;21.780;2022-08-25T03:08:54;24.25;;;7.78;;
63975;SDS011;50167;47.958;21.780;2022-08-25T03:11:21;24.80;;;6.40;;
63975;SDS011;50167;47.958;21.780;2022-08-25T03:13:50;34.43;;;7.58;;
63975;SDS011;50167;47.958;21.780;2022-08-25T03:16:17;23.12;;;7.53;;
63975;SDS011;50167;47.958;21.780;2022-08-25T03:18:45;34.05;;;7.92;;
63975;SDS011;50167;47.958;21.780;2022-08-25T03:21:14;28.60;;;8.43;;
63975;SDS011;50167;47.958;21.780;2022-08-25T03:23:41;25.95;;;8.23;;
63975;SDS011;50167;47.958;21.780;2022-08-25T03:26:12;37.17;;;8.43;;
63975;SDS011;50167;47.958;21.780;2022-08-25T03:28:59;35.98;;;9.00;;
63975;SDS011;50167;47.958;21.780;2022-08-25T03:33:57;38.73;;;8.35;;
63975;SDS011;50167;47.958;21.780;2022-08-25T03:36:26;28.35;;;8.43;;
63975;SDS011;50167;47.958;21.780;2022-08-25T03:38:54;37.93;;;9.70;;
63975;SDS011;50167;47.958;21.780;2022-08-25T03:41:22;27.58;;;7.62;;
63975;SDS011;50167;47.958;21.780;2022-08-25T03:43:53;31.20;;;9.93;;
63975;SDS011;50167;47.958;21.780;2022-08-25T03:46:26;26.85;;;9.05;;
63975;SDS011;50167;47.958;21.780;2022-08-25T03:49:00;27.00;;;8.20;;
63975;SDS011;50167;47.958;21.780;2022-08-25T03:56:29;35.50;;;9.95;;
63975;SDS011;50167;47.958;21.780;2022-08-25T03:58:56;39.85;;;10.18;;
63975;SDS011;50167;47.958;21.780;2022-08-25T04:01:23;40.33;;;9.65;;
63975;SDS011;50167;47.958;21.780;2022-08-25T04:03:51;33.55;;;8.73;;
63975;SDS011;50167;47.958;21.780;2022-08-25T04:06:18;29.50;;;9.58;;
63975;SDS011;50167;47.958;21.780;2022-08-25T04:08:46;37.78;;;10.45;;
63975;SDS011;50167;47.958;21.780;2022-08-25T04:11:15;32.48;;;9.78;;
63975;SDS011;50167;47.958;21.780;2022-08-25T04:13:45;22.67;;;9.00;;
63975;SDS011;50167;47.958;21.780;2022-08-25T04:16:18;23.55;;;8.05;;
63975;SDS011;50167;47.958;21.780;2022-08-25T04:18:51;30.57;;;8.65;;
63975;SDS011;50167;47.958;21.780;2022-08-25T04:21:21;37.60;;;9.25;;
63975;SDS011;50167;47.958;21.780;2022-08-25T04:23:49;36.17;;;9.13;;
63975;SDS011;50167;47.958;21.780;2022-08-25T04:26:21;33.40;;;9.90;;
63975;SDS011;50167;47.958;21.780;2022-08-25T04:28:52;44.08;;;11.05;;
63975;SDS011;50167;47.958;21.780;2022-08-25T04:31:22;31.95;;;9.10;;
63975;SDS011;50167;47.958;21.780;2022-08-25T04:33:49;45.10;;;11.25;;
63975;SDS011;50167;47.958;21.780;2022-08-25T04:36:17;33.55;;;10.50;;
63975;SDS011;50167;47.958;21.780;2022-08-25T04:38:46;41.10;;;11.63;;
63975;SDS011;50167;47.958;21.780;2022-08-25T04:41:16;39.33;;;9.73;;
63975;SDS011;50167;47.958;21.780;2022-08-25T04:43:46;39.53;;;10.90;;
63975;SDS011;50167;47.958;21.780;2022-08-25T04:46:19;39.95;;;9.93;;
63975;SDS011;50167;47.958;21.780;2022-08-25T04:48:55;41.75;;;10.95;;
63975;SDS011;50167;47.958;21.780;2022-08-25T04:51:26;34.48;;;12.03;;
63975;SDS011;50167;47.958;21.780;2022-08-25T04:54:00;44.95;;;10.72;;
63975;SDS011;50167;47.958;21.780;2022-08-25T04:56:31;37.88;;;11.18;;
63975;SDS011;50167;47.958;21.780;2022-08-25T04:59:07;45.88;;;10.45;;
63975;SDS011;50167;47.958;21.780;2022-08-25T05:01:33;26.90;;;10.72;;
63975;SDS011;50167;47.958;21.780;2022-08-25T05:04:03;33.83;;;10.58;;
63975;SDS011;50167;47.958;21.780;2022-08-25T05:06:33;44.35;;;10.60;;
63975;SDS011;50167;47.958;21.780;2022-08-25T05:09:00;31.73;;;10.58;;
63975;SDS011;50167;47.958;21.780;2022-08-25T05:11:29;39.35;;;12.03;;
63975;SDS011;50167;47.958;21.780;2022-08-25T05:13:57;44.95;;;10.48;;
63975;SDS011;50167;47.958;21.780;2022-08-25T05:16:26;41.65;;;9.83;;
63975;SDS011;50167;47.958;21.780;2022-08-25T05:18:54;51.45;;;11.53;;
63975;SDS011;50167;47.958;21.780;2022-08-25T05:21:23;44.90;;;10.65;;
63975;SDS011;50167;47.958;21.780;2022-08-25T05:23:56;35.17;;;11.43;;
63975;SDS011;50167;47.958;21.780;2022-08-25T05:26:26;38.40;;;9.38;;
63975;SDS011;50167;47.958;21.780;2022-08-25T05:28:57;48.13;;;10.90;;
63975;SDS011;50167;47.958;21.780;2022-08-25T05:31:26;46.68;;;9.78;;
63975;SDS011;50167;47.958;21.780;2022-08-25T05:33:54;37.65;;;9.80;;
63975;SDS011;50167;47.958;21.780;2022-08-25T05:36:23;30.70;;;9.58;;
63975;SDS011;50167;47.958;21.780;2022-08-25T05:38:52;59.63;;;11.68;;
63975;SDS011;50167;47.958;21.780;2022-08-25T05:41:21;34.27;;;8.73;;
63975;SDS011;50167;47.958;21.780;2022-08-25T05:43:55;38.23;;;9.85;;
63975;SDS011;50167;47.958;21.780;2022-08-25T05:46:23;49.18;;;10.30;;
63975;SDS011;50167;47.958;21.780;2022-08-25T05:48:52;40.05;;;9.68;;
63975;SDS011;50167;47.958;21.780;2022-08-25T05:51:23;39.53;;;10.25;;
63975;SDS011;50167;47.958;21.780;2022-08-25T05:53:50;37.58;;;9.90;;
63975;SDS011;50167;47.958;21.780;2022-08-25T05:56:17;43.30;;;9.80;;
63975;SDS011;50167;47.958;21.780;2022-08-25T05:58:44;38.08;;;7.45;;
63975;SDS011;50167;47.958;21.780;2022-08-25T06:01:20;41.37;;;8.53;;
63975;SDS011;50167;47.958;21.780;2022-08-25T06:04:12;46.20;;;10.70;;
63975;SDS011;50167;47.958;21.780;2022-08-25T06:06:46;36.93;;;8.98;;
63975;SDS011;50167;47.958;21.780;2022-08-25T06:09:14;43.63;;;10.03;;
63975;SDS011;50167;47.958;21.780;2022-08-25T06:11:41;39.75;;;7.12;;
63975;SDS011;50167;47.958;21.780;2022-08-25T06:14:08;27.48;;;7.33;;
63975;SDS011;50167;47.958;21.780;2022-08-25T06:16:37;36.03;;;8.48;;
63975;SDS011;50167;47.958;21.780;2022-08-25T06:19:04;32.10;;;7.75;;
63975;SDS011;50167;47.958;21.780;2022-08-25T06:21:33;37.80;;;7.20;;
63975;SDS011;50167;47.958;21.780;2022-08-25T06:24:02;35.08;;;8.70;;
63975;SDS011;50167;47.958;21.780;2022-08-25T06:26:30;36.25;;;8.50;;
63975;SDS011;50167;47.958;21.780;2022-08-25T06:28:58;29.20;;;6.70;;
63975;SDS011;50167;47.958;21.780;2022-08-25T06:31:25;30.05;;;6.72;;
63975;SDS011;50167;47.958;21.780;2022-08-25T06:33:52;35.52;;;7.78;;
63975;SDS011;50167;47.958;21.780;2022-08-25T06:36:22;23.67;;;6.95;;
63975;SDS011;50167;47.958;21.780;2022-08-25T06:38:50;38.02;;;7.30;;
63975;SDS011;50167;47.958;21.780;2022-08-25T06:41:24;34.50;;;8.40;;
63975;SDS011;50167;47.958;21.780;2022-08-25T06:43:51;24.15;;;7.20;;
63975;SDS011;50167;47.958;21.780;2022-08-25T06:46:20;29.65;;;6.65;;
63975;SDS011;50167;47.958;21.780;2022-08-25T06:48:53;31.07;;;7.03;;
63975;SDS011;50167;47.958;21.780;2022-08-25T06:53:52;39.10;;;6.62;;
63975;SDS011;50167;47.958;21.780;2022-08-25T06:56:19;27.87;;;7.12;;
63975;SDS011;50167;47.958;21.780;2022-08-25T06:58:47;33.83;;;7.92;;
63975;SDS011;50167;47.958;21.780;2022-08-25T07:01:16;41.58;;;7.12;;
63975;SDS011;50167;47.958;21.780;2022-08-25T07:03:53;28.77;;;6.50;;
63975;SDS011;50167;47.958;21.780;2022-08-25T07:06:25;27.77;;;6.72;;
63975;SDS011;50167;47.958;21.780;2022-08-25T07:08:56;25.60;;;6.70;;
63975;SDS011;50167;47.958;21.780;2022-08-25T07:11:23;27.42;;;7.30;;
63975;SDS011;50167;47.958;21.780;2022-08-25T07:13:51;30.35;;;6.72;;
63975;SDS011;50167;47.958;21.780;2022-08-25T07:16:19;28.30;;;7.72;;
63975;SDS011;50167;47.958;21.780;2022-08-25T07:18:47;23.05;;;6.00;;
63975;SDS011;50167;47.958;21.780;2022-08-25T07:21:14;26.73;;;7.03;;
63975;SDS011;50167;47.958;21.780;2022-08-25T07:23:42;28.62;;;7.42;;
63975;SDS011;50167;47.958;21.780;2022-08-25T07:26:13;26.95;;;6.72;;
63975;SDS011;50167;47.958;21.780;2022-08-25T07:28:45;25.40;;;6.60;;
63975;SDS011;50167;47.958;21.780;2022-08-25T07:31:13;26.87;;;7.17;;
63975;SDS011;50167;47.958;21.780;2022-08-25T07:33:40;27.67;;;6.90;;
63975;SDS011;50167;47.958;21.780;2022-08-25T07:36:09;28.40;;;6.83;;
63975;SDS011;50167;47.958;21.780;2022-08-25T07:38:36;34.73;;;6.95;;
63975;SDS011;50167;47.958;21.780;2022-08-25T07:41:03;29.32;;;5.92;;
63975;SDS011;50167;47.958;21.780;2022-08-25T07:43:31;31.85;;;7.80;;
63975;SDS011;50167;47.958;21.780;2022-08-25T07:45:58;28.83;;;5.85;;
63975;SDS011;50167;47.958;21.780;2022-08-25T07:48:25;28.05;;;6.03;;
63975;SDS011;50167;47.958;21.780;2022-08-25T07:50:52;30.02;;;6.90;;
63975;SDS011;50167;47.958;21.780;2022-08-25T07:53:19;25.30;;;5.10;;
63975;SDS011;50167;47.958;21.780;2022-08-25T07:55:46;17.02;;;5.40;;
63975;SDS011;50167;47.958;21.780;2022-08-25T07:58:13;18.25;;;5.45;;
63975;SDS011;50167;47.958;21.780;2022-08-25T08:00:41;25.32;;;4.97;;
63975;SDS011;50167;47.958;21.780;2022-08-25T08:03:08;30.62;;;5.60;;
63975;SDS011;50167;47.958;21.780;2022-08-25T08:05:39;30.80;;;6.00;;
63975;SDS011;50167;47.958;21.780;2022-08-25T08:08:06;25.80;;;5.28;;
63975;SDS011;50167;47.958;21.780;2022-08-25T08:10:33;22.85;;;5.45;;
63975;SDS011;50167;47.958;21.780;2022-08-25T08:13:00;22.75;;;5.70;;
63975;SDS011;50167;47.958;21.780;2022-08-25T08:15:28;23.92;;;4.80;;
63975;SDS011;50167;47.958;21.780;2022-08-25T08:17:56;31.20;;;6.37;;
63975;SDS011;50167;47.958;21.780;2022-08-25T08:20:26;31.12;;;5.22;;
63975;SDS011;50167;47.958;21.780;2022-08-25T08:22:56;29.10;;;6.05;;
63975;SDS011;50167;47.958;21.780;2022-08-25T08:25:23;21.12;;;5.72;;
63975;SDS011;50167;47.958;21.780;2022-08-25T08:27:51;23.40;;;6.53;;
63975;SDS011;50167;47.958;21.780;2022-08-25T08:30:18;26.15;;;5.17;;
63975;SDS011;50167;47.958;21.780;2022-08-25T08:32:46;23.40;;;4.92;;
63975;SDS011;50167;47.958;21.780;2022-08-25T08:35:15;23.60;;;5.53;;
63975;SDS011;50167;47.958;21.780;2022-08-25T08:37:44;20.10;;;5.00;;
63975;SDS011;50167;47.958;21.780;2022-08-25T08:40:13;18.98;;;6.00;;
63975;SDS011;50167;47.958;21.780;2022-08-25T08:42:52;27.10;;;5.67;;
63975;SDS011;50167;47.958;21.780;2022-08-25T08:45:35;18.87;;;5.22;;
63975;SDS011;50167;47.958;21.780;2022-08-25T08:51:19;35.23;;;6.50;;
63975;SDS011;50167;47.958;21.780;2022-08-25T08:53:53;31.15;;;6.65;;
63975;SDS011;50167;47.958;21.780;2022-08-25T08:56:34;35.95;;;6.00;;
63975;SDS011;50167;47.958;21.780;2022-08-25T08:59:10;33.58;;;6.37;;
63975;SDS011;50167;47.958;21.780;2022-08-25T09:01:53;21.27;;;5.78;;
63975;SDS011;50167;47.958;21.780;2022-08-25T09:07:09;28.12;;;5.40;;
63975;SDS011;50167;47.958;21.780;2022-08-25T09:09:50;45.73;;;8.58;;
63975;SDS011;50167;47.958;21.780;2022-08-25T09:12:36;44.88;;;7.42;;
63975;SDS011;50167;47.958;21.780;2022-08-25T09:18:25;28.65;;;7.22;;
63975;SDS011;50167;47.958;21.780;2022-08-25T09:21:08;33.23;;;5.95;;
63975;SDS011;50167;47.958;21.780;2022-08-25T09:24:15;23.38;;;6.25;;
63975;SDS011;50167;47.958;21.780;2022-08-25T09:29:58;38.98;;;6.33;;
63975;SDS011;50167;47.958;21.780;2022-08-25T09:32:36;31.37;;;5.50;;
63975;SDS011;50167;47.958;21.780;2022-08-25T09:35:13;29.42;;;5.40;;
63975;SDS011;50167;47.958;21.780;2022-08-25T09:38:02;21.82;;;5.50;;
63975;SDS011;50167;47.958;21.780;2022-08-25T09:40:34;41.37;;;7.22;;
63975;SDS011;50167;47.958;21.780;2022-08-25T09:43:28;37.30;;;6.15;;
63975;SDS011;50167;47.958;21.780;2022-08-25T09:46:09;34.60;;;5.80;;
63975;SDS011;50167;47.958;21.780;2022-08-25T09:48:45;34.23;;;5.70;;
63975;SDS011;50167;47.958;21.780;2022-08-25T09:51:22;34.48;;;6.67;;
63975;SDS011;50167;47.958;21.780;2022-08-25T09:56:34;36.95;;;6.25;;
63975;SDS011;50167;47.958;21.780;2022-08-25T09:59:19;34.78;;;5.55;;
63975;SDS011;50167;47.958;21.780;2022-08-25T10:02:01;29.30;;;6.00;;
63975;SDS011;50167;47.958;21.780;2022-08-25T10:04:47;24.95;;;6.65;;
63975;SDS011;50167;47.958;21.780;2022-08-25T10:07:22;33.42;;;6.05;;
63975;SDS011;50167;47.958;21.780;2022-08-25T10:09:59;35.25;;;6.40;;
63975;SDS011;50167;47.958;21.780;2022-08-25T10:15:25;24.23;;;6.15;;
63975;SDS011;50167;47.958;21.780;2022-08-25T10:21:24;25.88;;;5.40;;
63975;SDS011;50167;47.958;21.780;2022-08-25T10:23:33;30.65;;;7.62;;
63975;SDS011;50167;47.958;21.780;2022-08-25T10:26:07;29.02;;;6.22;;
63975;SDS011;50167;47.958;21.780;2022-08-25T10:28:51;31.60;;;6.53;;
63975;SDS011;50167;47.958;21.780;2022-08-25T10:31:55;26.37;;;5.62;;
63975;SDS011;50167;47.958;21.780;2022-08-25T10:34:47;33.38;;;5.95;;
63975;SDS011;50167;47.958;21.780;2022-08-25T10:45:57;41.92;;;7.10;;
63975;SDS011;50167;47.958;21.780;2022-08-25T10:48:55;43.10;;;6.62;;
63975;SDS011;50167;47.958;21.780;2022-08-25T10:51:47;43.78;;;6.83;;
63975;SDS011;50167;47.958;21.780;2022-08-25T10:54:31;46.00;;;6.53;;
63975;SDS011;50167;47.958;21.780;2022-08-25T10:59:56;48.13;;;6.80;;
63975;SDS011;50167;47.958;21.780;2022-08-25T11:02:52;44.13;;;7.67;;
63975;SDS011;50167;47.958;21.780;2022-08-25T11:16:40;51.58;;;7.97;;
63975;SDS011;50167;47.958;21.780;2022-08-25T11:19:29;44.33;;;7.08;;
63975;SDS011;50167;47.958;21.780;2022-08-25T11:22:10;43.45;;;7.28;;
63975;SDS011;50167;47.958;21.780;2022-08-25T11:27:31;50.65;;;7.50;;
63975;SDS011;50167;47.958;21.780;2022-08-25T11:30:17;36.95;;;7.28;;
63975;SDS011;50167;47.958;21.780;2022-08-25T11:32:48;31.73;;;6.20;;
63975;SDS011;50167;47.958;21.780;2022-08-25T11:35:18;42.48;;;6.53;;
63975;SDS011;50167;47.958;21.780;2022-08-25T11:40:59;46.65;;;7.75;;
63975;SDS011;50167;47.958;21.780;2022-08-25T11:46:36;36.53;;;6.20;;
63975;SDS011;50167;47.958;21.780;2022-08-25T12:00:50;40.63;;;6.25;;
63975;SDS011;50167;47.958;21.780;2022-08-25T12:23:33;29.65;;;7.25;;
63975;SDS011;50167;47.958;21.780;2022-08-25T12:28:54;36.65;;;8.08;;
63975;SDS011;50167;47.958;21.780;2022-08-25T12:34:45;46.23;;;7.12;;
63975;SDS011;50167;47.958;21.780;2022-08-25T12:37:22;60.43;;;9.63;;
63975;SDS011;50167;47.958;21.780;2022-08-25T12:42:30;47.83;;;9.00;;
63975;SDS011;50167;47.958;21.780;2022-08-25T12:50:56;59.67;;;6.87;;
63975;SDS011;50167;47.958;21.780;2022-08-25T12:53:37;43.83;;;8.33;;
63975;SDS011;50167;47.958;21.780;2022-08-25T12:59:11;35.45;;;7.20;;
63975;SDS011;50167;47.958;21.780;2022-08-25T13:14:17;28.32;;;6.33;;
63975;SDS011;50167;47.958;21.780;2022-08-25T13:19:35;33.73;;;7.90;;
63975;SDS011;50167;47.958;21.780;2022-08-25T13:22:03;32.55;;;6.22;;
63975;SDS011;50167;47.958;21.780;2022-08-25T13:24:42;31.02;;;5.85;;
63975;SDS011;50167;47.958;21.780;2022-08-25T13:27:20;49.88;;;8.23;;
63975;SDS011;50167;47.958;21.780;2022-08-25T13:29:54;44.93;;;7.17;;
63975;SDS011;50167;47.958;21.780;2022-08-25T13:32:29;32.80;;;6.15;;
63975;SDS011;50167;47.958;21.780;2022-08-25T13:35:07;37.13;;;5.67;;
63975;SDS011;50167;47.958;21.780;2022-08-25T13:37:49;27.93;;;7.05;;
63975;SDS011;50167;47.958;21.780;2022-08-25T13:40:28;38.98;;;7.10;;
63975;SDS011;50167;47.958;21.780;2022-08-25T13:42:57;54.80;;;8.13;;
63975;SDS011;50167;47.958;21.780;2022-08-25T13:45:30;27.50;;;7.08;;
63975;SDS011;50167;47.958;21.780;2022-08-25T13:48:01;41.70;;;7.12;;
63975;SDS011;50167;47.958;21.780;2022-08-25T13:50:30;41.45;;;7.17;;
63975;SDS011;50167;47.958;21.780;2022-08-25T13:53:13;26.30;;;6.78;;
63975;SDS011;50167;47.958;21.780;2022-08-25T13:55:59;41.55;;;7.55;;
63975;SDS011;50167;47.958;21.780;2022-08-25T13:58:26;35.50;;;6.70;;
63975;SDS011;50167;47.958;21.780;2022-08-25T14:03:50;52.40;;;7.12;;
63975;SDS011;50167;47.958;21.780;2022-08-25T14:06:23;38.13;;;6.47;;
63975;SDS011;50167;47.958;21.780;2022-08-25T14:11:30;32.00;;;6.22;;
63975;SDS011;50167;47.958;21.780;2022-08-25T14:19:33;30.82;;;6.10;;
63975;SDS011;50167;47.958;21.780;2022-08-25T14:22:01;39.18;;;7.50;;
63975;SDS011;50167;47.958;21.780;2022-08-25T14:24:32;39.60;;;6.87;;
63975;SDS011;50167;47.958;21.780;2022-08-25T14:27:00;40.80;;;6.03;;
63975;SDS011;50167;47.958;21.780;2022-08-25T14:29:28;56.83;;;8.18;;
63975;SDS011;50167;47.958;21.780;2022-08-25T14:31:56;37.55;;;7.80;;
63975;SDS011;50167;47.958;21.780;2022-08-25T14:36:53;57.38;;;7.60;;
63975;SDS011;50167;47.958;21.780;2022-08-25T14:39:20;54.30;;;8.03;;
63975;SDS011;50167;47.958;21.780;2022-08-25T14:41:48;68.02;;;8.00;;
63975;SDS011;50167;47.958;21.780;2022-08-25T14:44:15;40.25;;;7.35;;
63975;SDS011;50167;47.958;21.780;2022-08-25T14:46:43;35.68;;;6.30;;
63975;SDS011;50167;47.958;21.780;2022-08-25T14:49:16;37.65;;;6.58;;
63975;SDS011;50167;47.958;21.780;2022-08-25T14:51:44;35.65;;;6.85;;
63975;SDS011;50167;47.958;21.780;2022-08-25T14:54:12;42.60;;;7.78;;
63975;SDS011;50167;47.958;21.780;2022-08-25T14:56:39;37.88;;;7.12;;
63975;SDS011;50167;47.958;21.780;2022-08-25T14:59:06;29.20;;;6.47;;
63975;SDS011;50167;47.958;21.780;2022-08-25T15:01:32;32.15;;;7.55;;
63975;SDS011;50167;47.958;21.780;2022-08-25T15:04:15;43.87;;;6.70;;
63975;SDS011;50167;47.958;21.780;2022-08-25T15:06:46;34.40;;;6.55;;
63975;SDS011;50167;47.958;21.780;2022-08-25T15:09:17;38.13;;;6.42;;
63975;SDS011;50167;47.958;21.780;2022-08-25T15:11:49;45.30;;;7.05;;
63975;SDS011;50167;47.958;21.780;2022-08-25T15:14:19;41.40;;;7.55;;
63975;SDS011;50167;47.958;21.780;2022-08-25T15:16:53;42.53;;;6.95;;
63975;SDS011;50167;47.958;21.780;2022-08-25T15:19:22;48.17;;;6.95;;
63975;SDS011;50167;47.958;21.780;2022-08-25T15:21:51;46.80;;;6.55;;
63975;SDS011;50167;47.958;21.780;2022-08-25T15:24:18;36.50;;;6.72;;
63975;SDS011;50167;47.958;21.780;2022-08-25T15:26:52;40.23;;;7.08;;
63975;SDS011;50167;47.958;21.780;2022-08-25T15:29:22;51.42;;;7.67;;
63975;SDS011;50167;47.958;21.780;2022-08-25T15:31:51;48.33;;;6.55;;
63975;SDS011;50167;47.958;21.780;2022-08-25T15:34:18;51.45;;;7.08;;
63975;SDS011;50167;47.958;21.780;2022-08-25T15:36:44;53.78;;;7.37;;
63975;SDS011;50167;47.958;21.780;2022-08-25T15:39:11;44.60;;;7.53;;
63975;SDS011;50167;47.958;21.780;2022-08-25T15:41:38;48.45;;;7.67;;
63975;SDS011;50167;47.958;21.780;2022-08-25T15:44:05;56.40;;;7.28;;
63975;SDS011;50167;47.958;21.780;2022-08-25T15:46:35;41.10;;;8.05;;
63975;SDS011;50167;47.958;21.780;2022-08-25T15:49:03;36.05;;;6.62;;
63975;SDS011;50167;47.958;21.780;2022-08-25T15:51:30;57.03;;;7.55;;
63975;SDS011;50167;47.958;21.780;2022-08-25T15:53:56;30.95;;;6.22;;
63975;SDS011;50167;47.958;21.780;2022-08-25T15:56:23;50.95;;;10.45;;
63975;SDS011;50167;47.958;21.780;2022-08-25T15:58:50;48.20;;;6.75;;
63975;SDS011;50167;47.958;21.780;2022-08-25T16:01:19;42.58;;;9.38;;
63975;SDS011;50167;47.958;21.780;2022-08-25T16:03:51;46.83;;;7.45;;
63975;SDS011;50167;47.958;21.780;2022-08-25T16:06:19;32.63;;;6.97;;
63975;SDS011;50167;47.958;21.780;2022-08-25T16:08:45;41.75;;;6.80;;
63975;SDS011;50167;47.958;21.780;2022-08-25T16:11:16;68.25;;;10.13;;
63975;SDS011;50167;47.958;21.780;2022-08-25T16:13:46;40.70;;;7.53;;
63975;SDS011;50167;47.958;21.780;2022-08-25T16:16:14;44.42;;;7.12;;
63975;SDS011;50167;47.958;21.780;2022-08-25T16:18:41;33.35;;;6.45;;
63975;SDS011;50167;47.958;21.780;2022-08-25T16:21:09;43.80;;;7.12;;
63975;SDS011;50167;47.958;21.780;2022-08-25T16:23:39;50.05;;;6.45;;
63975;SDS011;50167;47.958;21.780;2022-08-25T16:26:05;50.30;;;7.87;;
63975;SDS011;50167;47.958;21.780;2022-08-25T16:28:35;40.12;;;6.62;;
63975;SDS011;50167;47.958;21.780;2022-08-25T16:31:02;44.80;;;7.70;;
63975;SDS011;50167;47.958;21.780;2022-08-25T16:33:29;56.83;;;7.53;;
63975;SDS011;50167;47.958;21.780;2022-08-25T16:38:35;46.20;;;6.35;;
63975;SDS011;50167;47.958;21.780;2022-08-25T16:41:08;39.40;;;6.87;;
63975;SDS011;50167;47.958;21.780;2022-08-25T16:43:35;42.40;;;9.10;;
63975;SDS011;50167;47.958;21.780;2022-08-25T16:46:04;28.32;;;9.23;;
63975;SDS011;50167;47.958;21.780;2022-08-25T16:48:34;37.93;;;7.08;;
63975;SDS011;50167;47.958;21.780;2022-08-25T16:51:05;60.80;;;8.80;;
63975;SDS011;50167;47.958;21.780;2022-08-25T16:53:34;48.23;;;7.55;;
63975;SDS011;50167;47.958;21.780;2022-08-25T16:56:19;54.30;;;7.25;;
63975;SDS011;50167;47.958;21.780;2022-08-25T16:58:57;47.27;;;8.58;;
63975;SDS011;50167;47.958;21.780;2022-08-25T17:01:21;40.20;;;6.20;;
63975;SDS011;50167;47.958;21.780;2022-08-25T17:03:50;51.88;;;9.40;;
63975;SDS011;50167;47.958;21.780;2022-08-25T17:06:18;42.38;;;7.12;;
63975;SDS011;50167;47.958;21.780;2022-08-25T17:08:45;34.50;;;7.47;;
63975;SDS011;50167;47.958;21.780;2022-08-25T17:11:14;39.38;;;8.63;;